メインページ
METAR-TAF:

METAR-TAF

空港 :

東京国際空港

東京 / 羽田国際空港, 日本

緯度: 35-33N, 経度: 139-47E, 海抜: 5m

現時点の気象観測

当レポートは34分前の11:30(UTC)に作成
北東の風 9kt
気温 16°C
湿度 72%
気圧 1018 hPa
視程10km以上
高度2000ftの雲はほとんどない
高度3500ftの雲は散在している
高度15000ftの千切れ雲あり

METAR: RJTT 211130Z 04009KT 9999 FEW020 SCT035 BKN150 16/11 Q1018 NOSIG RMK 1CU020 3CU035 7AC150 A3008

時間: 21:04 (12:04 UTC)

予報

当レポートは59分前の11:05(UTC)に作成
予報は21日の 12時(UTC)から 22日の 18時(UTC)まで有効
の風 12kt
視程: 8000m
高度800ftの雲はほとんどない
高度1500ftの千切れ雲あり
21日の 13時(UTC)から 21日の 15時(UTC)まで徐々に
高度500ftの雲はほとんどない
高度800ftの千切れ雲あり
21日の 13時(UTC)から 21日の 18時(UTC)まで一時的に
視程: 3000m
にわか雨, 靄
22日の 03時(UTC)から 22日の 06時(UTC)まで徐々に
高度2000ftの雲はほとんどない
高度5000ftの雲は散在している
22日の 06時(UTC)から 22日の 09時(UTC)まで徐々に
西/北西の風 5kt
22日の 15時(UTC)から 22日の 18時(UTC)まで徐々に
北/北西の風 16kt

TAF: RJTT 211105Z 2112/2218 36012KT 8000 FEW008 BKN015 BECMG 2113/2115 FEW005 BKN008 TEMPO 2113/2118 3000 SHRA BR BECMG 2203/2206 FEW020 SCT050 BECMG 2206/2209 30005KT BECMG 2215/2218 34016KT

4,000以上の空港の気象観測と天気予報(METAR報とTAF報)

利用可能な観測所は地図上に黄色い丸と赤い丸で示す。

丸の上にカーソルを重ねると観測所名を参照できる。

次にクリックすると気象観測と天気予報を参照できる。

マップの切り替え:黒色「×」印の緑ボタンをクリックして拡大、「-」印の緑ボタンをクリックして縮小、緑色の三角印をクリックして隣りの地図に切り替え


METAR-TAF: